Time;durP1;ratioP1;P1;durP2;ratioP2;P2;SDS_P1;SDS_P2;PMS_P1;PMS_P2;Temp;Humidity;BMP_temperature;BMP_pressure;BME280_temperature;BME280_humidity;BME280_pressure;Samples;Min_cycle;Max_cycle;Signal;HPM_P1;HPM_P2
2023/11/06 00:02:21;;;;;;;0.90;0.90;;;;;;;22.07;59.88;96036.75;5014450;28;20226;-26
2023/11/06 00:04:47;;;;;;;1.43;1.10;;;;;;;22.06;59.88;96040.16;5020489;28;20206;-26
2023/11/06 00:07:15;;;;;;;0.90;0.90;;;;;;;22.06;59.82;96047.84;5016512;28;20206;-29
2023/11/06 00:09:41;;;;;;;0.90;0.90;;;;;;;22.06;59.75;96058.94;5019009;28;20205;-28
2023/11/06 00:12:11;;;;;;;1.10;1.00;;;;;;;22.06;59.75;96071.72;5015551;28;20249;-29
2023/11/06 00:14:37;;;;;;;0.90;0.90;;;;;;;22.06;59.71;96074.28;5014217;28;20207;-26
2023/11/06 00:17:04;;;;;;;1.00;0.90;;;;;;;;;;5014887;28;20663;-26
2023/11/06 00:19:30;;;;;;;1.10;1.00;;;;;;;22.07;59.79;96080.22;5015097;28;20719;-27
2023/11/06 00:21:57;;;;;;;0.80;0.80;;;;;;;22.07;59.79;96087.91;5014776;28;20218;-26
2023/11/06 00:24:24;;;;;;;1.00;0.90;;;;;;;22.07;60.06;96098.13;5013413;28;20209;-26
2023/11/06 00:26:51;;;;;;;1.00;1.00;;;;;;;22.08;59.92;96098.16;5019963;28;20202;-30
2023/11/06 00:29:17;;;;;;;1.00;1.00;;;;;;;22.07;59.71;96098.13;5015614;28;20208;-26
2023/11/06 00:31:44;;;;;;;0.90;0.90;;;;;;;22.07;59.77;96100.69;5013433;28;20301;-26
2023/11/06 00:34:11;;;;;;;0.90;0.90;;;;;;;;;;5014739;28;20202;-26
2023/11/06 00:36:38;;;;;;;1.20;1.10;;;;;;;22.06;59.93;96116.91;5016208;28;20293;-26
2023/11/06 00:39:07;;;;;;;0.80;0.80;;;;;;;22.05;59.84;96117.75;5013186;28;20248;-26
2023/11/06 00:41:34;;;;;;;1.00;1.00;;;;;;;22.05;59.74;96110.09;5016278;28;20308;-26
2023/11/06 00:44:00;;;;;;;0.90;0.90;;;;;;;22.05;59.72;96120.31;5015071;28;20253;-26
2023/11/06 00:46:27;;;;;;;0.80;0.80;;;;;;;22.06;59.77;96124.59;5017909;28;20206;-26
2023/11/06 00:48:53;;;;;;;1.03;0.93;;;;;;;22.05;59.86;96130.56;5011489;28;20260;-26
2023/11/06 00:51:20;;;;;;;0.90;0.90;;;;;;;22.06;59.83;96134.81;5019676;28;20781;-27
2023/11/06 00:53:46;;;;;;;0.83;0.83;;;;;;;22.06;59.89;96132.25;5013832;28;20198;-28
2023/11/06 00:56:13;;;;;;;0.90;0.90;;;;;;;22.06;59.74;96142.50;5014542;28;20679;-29
2023/11/06 00:58:43;;;;;;;0.70;0.70;;;;;;;22.06;59.77;96139.94;5020624;28;20240;-30
2023/11/06 01:01:12;;;;;;;0.80;0.80;;;;;;;22.06;59.92;96138.25;5018276;28;20222;-26
2023/11/06 01:03:39;;;;;;;0.80;0.80;;;;;;;22.06;59.90;96143.34;5019400;28;20198;-26
2023/11/06 01:06:05;;;;;;;1.00;1.00;;;;;;;22.07;59.85;96141.63;5016605;28;20201;-27
2023/11/06 01:08:32;;;;;;;0.90;0.90;;;;;;;22.06;59.81;96140.78;5011694;28;20286;-26
2023/11/06 01:10:58;;;;;;;0.80;0.80;;;;;;;22.06;59.94;96153.59;5021160;28;20261;-28
2023/11/06 01:13:25;;;;;;;0.80;0.80;;;;;;;22.06;59.84;96158.72;5014754;28;20206;-28
2023/11/06 01:15:52;;;;;;;0.87;0.87;;;;;;;22.06;59.81;96152.72;5014360;28;20299;-26
2023/11/06 01:18:18;;;;;;;0.93;0.93;;;;;;;22.05;59.80;96158.69;5010273;28;20198;-26
2023/11/06 01:20:45;;;;;;;0.73;0.73;;;;;;;22.05;59.74;96166.38;5019299;28;20224;-31
2023/11/06 01:23:12;;;;;;;0.80;0.80;;;;;;;22.05;59.77;96174.03;5013330;28;20244;-27
2023/11/06 01:25:42;;;;;;;0.90;0.90;;;;;;;22.04;59.73;96160.38;5012375;28;20577;-26
2023/11/06 01:28:09;;;;;;;0.80;0.80;;;;;;;22.06;59.72;96170.63;5012688;28;20226;-29
2023/11/06 01:30:36;;;;;;;0.83;0.83;;;;;;;22.04;59.78;96165.50;5012754;28;20200;-26
2023/11/06 01:33:03;;;;;;;1.00;1.00;;;;;;;22.04;59.75;96164.63;5020474;28;20390;-27
2023/11/06 01:35:30;;;;;;;1.03;1.00;;;;;;;22.06;59.93;96178.31;5011951;28;20234;-28
2023/11/06 01:37:58;;;;;;;0.97;0.90;;;;;;;22.05;59.92;96179.16;5012345;28;20205;-26
2023/11/06 01:40:24;;;;;;;0.90;0.90;;;;;;;22.06;59.70;96191.97;5018896;28;20712;-26
2023/11/06 01:42:52;;;;;;;0.90;0.90;;;;;;;22.06;59.77;96193.66;5018367;28;20260;-26
2023/11/06 01:45:19;;;;;;;0.80;0.80;;;;;;;22.06;59.78;96191.97;5016938;28;20249;-27
2023/11/06 01:47:45;;;;;;;0.90;0.90;;;;;;;22.07;59.93;96203.03;5018957;28;20198;-26
2023/11/06 01:50:12;;;;;;;1.27;0.90;;;;;;;22.05;59.96;96199.63;5014716;28;20198;-29
2023/11/06 01:52:39;;;;;;;0.87;0.83;;;;;;;22.05;60.06;96207.31;5013365;28;20221;-30
2023/11/06 01:55:06;;;;;;;0.83;0.83;;;;;;;22.05;59.96;96209.88;5014078;28;20198;-26
2023/11/06 01:57:33;;;;;;;0.90;0.90;;;;;;;22.03;59.87;96209.84;5010522;28;20206;-27
2023/11/06 01:59:59;;;;;;;0.90;0.90;;;;;;;22.04;59.76;96223.47;5013451;28;20244;-28
2023/11/06 02:02:27;;;;;;;0.90;0.90;;;;;;;22.04;59.95;96223.47;5015280;28;20249;-26
2023/11/06 02:04:54;;;;;;;0.70;0.70;;;;;;;22.04;59.76;96218.34;5014705;28;20206;-27
2023/11/06 02:07:21;;;;;;;0.97;0.93;;;;;;;22.04;59.73;96218.34;5008918;28;20206;-26
2023/11/06 02:09:47;;;;;;;0.93;0.93;;;;;;;22.05;59.80;96209.88;5016886;28;20233;-27
2023/11/06 02:12:14;;;;;;;1.00;1.00;;;;;;;22.04;59.83;96214.13;5013410;28;20692;-30
2023/11/06 02:14:50;;;;;;;0.73;0.73;;;;;;;22.04;59.75;96219.22;5014636;28;20269;-26
2023/11/06 02:17:17;;;;;;;0.90;0.90;;;;;;;22.04;59.78;96219.22;5012812;28;20876;-26
2023/11/06 02:19:44;;;;;;;1.10;1.00;;;;;;;22.05;59.70;96222.66;5014690;28;20202;-27
2023/11/06 02:22:11;;;;;;;0.90;0.90;;;;;;;22.05;59.79;96227.78;5015750;28;20245;-29
2023/11/06 02:24:40;;;;;;;0.80;0.80;;;;;;;22.06;59.75;96238.00;5008066;28;20229;-26
2023/11/06 02:27:08;;;;;;;0.90;0.90;;;;;;;22.05;59.97;96238.00;5013490;28;20232;-26
2023/11/06 02:29:35;;;;;;;0.90;0.90;;;;;;;22.06;59.79;96244.81;5012168;28;20245;-26
2023/11/06 02:32:02;;;;;;;0.90;0.90;;;;;;;22.06;59.74;96244.81;5017261;28;20300;-26
2023/11/06 02:34:29;;;;;;;1.00;1.00;;;;;;;22.05;59.94;96243.13;5013472;28;20209;-26
2023/11/06 02:36:55;;;;;;;0.77;0.77;;;;;;;22.06;59.93;96252.50;5015035;28;20220;-26
2023/11/06 02:39:22;;;;;;;0.90;0.90;;;;;;;22.05;59.74;96250.78;5020762;28;20296;-26
2023/11/06 02:41:49;;;;;;;0.77;0.77;;;;;;;22.04;59.95;96247.38;5012119;28;20653;-29
2023/11/06 02:44:16;;;;;;;0.80;0.80;;;;;;;22.04;59.76;96251.63;5017404;28;20300;-26
2023/11/06 02:46:43;;;;;;;0.73;0.73;;;;;;;22.04;59.41;96256.75;5012082;28;20212;-28
2023/11/06 02:49:10;;;;;;;1.10;1.00;;;;;;;22.05;59.86;96255.91;5015490;28;20283;-27
2023/11/06 02:51:37;;;;;;;0.90;0.90;;;;;;;22.04;59.84;96249.06;5011896;28;20268;-28
2023/11/06 02:54:05;;;;;;;0.80;0.80;;;;;;;22.04;59.92;96249.94;5015567;28;20210;-26
2023/11/06 02:56:35;;;;;;;0.90;0.90;;;;;;;22.05;59.84;96248.25;5018164;28;20201;-26
2023/11/06 02:59:05;;;;;;;0.90;0.90;;;;;;;22.04;59.79;96251.63;5013681;28;20748;-27
2023/11/06 03:01:32;;;;;;;0.90;0.90;;;;;;;22.06;59.94;96249.94;5018506;28;20233;-26
2023/11/06 03:03:59;;;;;;;1.27;1.00;;;;;;;22.04;59.83;96249.94;5011850;28;20674;-26
2023/11/06 03:06:30;;;;;;;0.97;0.90;;;;;;;22.03;59.94;96247.34;5010214;28;20281;-27
2023/11/06 03:08:56;;;;;;;0.87;0.80;;;;;;;22.05;59.73;96253.34;5013923;28;20209;-26
2023/11/06 03:11:23;;;;;;;1.00;0.97;;;;;;;22.06;59.91;96249.94;5011804;28;20284;-26
2023/11/06 03:13:49;;;;;;;1.00;0.90;;;;;;;22.05;59.73;96256.75;5013976;28;20214;-30
2023/11/06 03:16:17;;;;;;;1.10;1.00;;;;;;;22.04;59.74;96251.63;5014421;28;20275;-26
2023/11/06 03:18:44;;;;;;;0.73;0.73;;;;;;;22.05;59.86;96255.91;5004575;28;20777;-30
2023/11/06 03:21:10;;;;;;;0.90;0.90;;;;;;;22.06;59.88;96263.59;5021371;28;20284;-27
2023/11/06 03:23:37;;;;;;;1.00;0.90;;;;;;;22.05;59.71;96261.03;5018492;28;20256;-26
2023/11/06 03:26:04;;;;;;;0.83;0.80;;;;;;;22.05;59.71;96261.03;5014760;28;20265;-26
2023/11/06 03:28:30;;;;;;;0.80;0.80;;;;;;;22.04;59.71;96264.41;5014776;28;20206;-29
2023/11/06 03:30:58;;;;;;;0.80;0.80;;;;;;;22.04;59.83;96260.16;5016684;28;20206;-26
2023/11/06 03:33:24;;;;;;;0.70;0.70;;;;;;;22.05;59.78;96268.69;5021458;28;20202;-26
2023/11/06 03:35:51;;;;;;;0.80;0.80;;;;;;;22.04;59.87;96267.84;5016329;28;20206;-26
2023/11/06 03:38:18;;;;;;;0.80;0.80;;;;;;;22.03;59.81;96271.25;5021144;28;20260;-26
2023/11/06 03:40:45;;;;;;;0.80;0.80;;;;;;;22.03;59.82;96268.69;5007924;28;20233;-28
2023/11/06 03:43:11;;;;;;;0.97;0.90;;;;;;;22.03;59.77;96278.94;5021246;28;20204;-26
2023/11/06 03:45:38;;;;;;;0.70;0.70;;;;;;;22.03;59.49;96283.19;5017362;28;20218;-26
2023/11/06 03:48:05;;;;;;;1.00;1.00;;;;;;;22.03;59.57;96283.19;5017148;28;20259;-26
2023/11/06 03:50:31;;;;;;;0.80;0.80;;;;;;;22.02;59.75;96284.88;5020730;28;20249;-27
2023/11/06 03:52:58;;;;;;;1.10;1.00;;;;;;;22.03;59.81;96290.84;5015402;28;20309;-26
2023/11/06 03:55:24;;;;;;;0.90;0.90;;;;;;;22.03;59.84;96290.84;5022353;28;20209;-26
2023/11/06 03:57:51;;;;;;;0.93;0.93;;;;;;;22.04;59.83;96295.09;5014579;28;20211;-26
2023/11/06 04:00:18;;;;;;;0.90;0.90;;;;;;;22.02;59.69;96289.16;5021433;28;20202;-28
2023/11/06 04:02:45;;;;;;;0.83;0.83;;;;;;;22.04;59.84;96301.09;5015603;28;20222;-26
2023/11/06 04:05:11;;;;;;;0.80;0.80;;;;;;;21.80;59.85;96262.53;5019354;28;20768;-27
2023/11/06 04:07:38;;;;;;;0.80;0.80;;;;;;;22.06;59.76;96309.66;5020678;28;20206;-27
2023/11/06 04:10:05;;;;;;;0.80;0.80;;;;;;;22.06;60.06;96307.09;5016308;28;20238;-26
2023/11/06 04:12:32;;;;;;;0.90;0.90;;;;;;;;;;5014357;28;20704;-26
2023/11/06 04:14:58;;;;;;;0.90;0.90;;;;;;;22.06;59.80;96307.09;5014363;28;20198;-27
2023/11/06 04:17:26;;;;;;;0.80;0.80;;;;;;;22.07;59.88;96305.38;5021868;28;20198;-26
2023/11/06 04:19:53;;;;;;;0.90;0.90;;;;;;;;;;5013837;28;20268;-26
2023/11/06 04:22:20;;;;;;;0.93;0.93;;;;;;;;;;5018226;28;20222;-26
2023/11/06 04:24:46;;;;;;;0.80;0.80;;;;;;;;;;5035626;28;20198;-26
2023/11/06 04:27:13;;;;;;;0.90;0.90;;;;;;;22.07;59.90;96333.50;5015867;28;20245;-29
2023/11/06 04:29:39;;;;;;;1.00;1.00;;;;;;;;;;5019474;28;20285;-27
2023/11/06 04:32:06;;;;;;;0.83;0.83;;;;;;;22.07;59.95;96338.63;5013580;28;20245;-26
2023/11/06 04:34:33;;;;;;;1.20;1.10;;;;;;;22.05;59.82;96333.50;5013998;28;20582;-26
2023/11/06 04:36:59;;;;;;;0.80;0.80;;;;;;;22.05;59.98;96333.50;5020723;28;20202;-30
2023/11/06 04:39:26;;;;;;;0.90;0.90;;;;;;;21.97;59.88;96321.50;5014977;28;20576;-27
2023/11/06 04:41:52;;;;;;;0.90;0.90;;;;;;;22.04;59.87;96329.25;5014017;28;20241;-26
2023/11/06 04:44:20;;;;;;;0.80;0.80;;;;;;;21.96;60.12;96317.22;5016364;28;20627;-26
2023/11/06 04:46:47;;;;;;;0.90;0.90;;;;;;;22.04;59.88;96339.47;5018219;28;20217;-26
2023/11/06 04:49:13;;;;;;;0.97;0.97;;;;;;;22.06;60.00;96342.03;5022381;28;20253;-27
2023/11/06 04:51:40;;;;;;;0.93;0.93;;;;;;;22.03;59.82;96342.88;5019667;28;20217;-28
2023/11/06 04:54:06;;;;;;;1.00;1.00;;;;;;;22.02;60.07;96343.72;5020875;28;20268;-26
2023/11/06 04:56:33;;;;;;;0.90;0.90;;;;;;;22.03;59.87;96336.91;5017301;28;20669;-26
2023/11/06 04:58:59;;;;;;;1.10;0.90;;;;;;;22.02;59.97;96341.16;5019778;28;20245;-26
2023/11/06 05:01:26;;;;;;;0.90;0.83;;;;;;;22.03;59.94;96352.25;5015809;28;20309;-29
2023/11/06 05:03:53;;;;;;;0.90;0.90;;;;;;;22.02;59.96;96348.81;5018580;28;20253;-26
2023/11/06 05:06:19;;;;;;;0.90;0.90;;;;;;;22.03;59.94;96352.25;5014489;28;20213;-26
2023/11/06 05:08:46;;;;;;;0.70;0.70;;;;;;;22.04;59.98;96354.81;5018741;28;20204;-27
2023/11/06 05:11:13;;;;;;;1.00;0.90;;;;;;;22.05;60.08;96348.00;5017123;28;20215;-29
2023/11/06 05:13:39;;;;;;;0.80;0.80;;;;;;;22.06;59.95;96357.41;5018884;28;20197;-26
2023/11/06 05:16:06;;;;;;;0.90;0.90;;;;;;;22.06;59.94;96354.84;5018146;28;20260;-27
2023/11/06 05:18:33;;;;;;;0.90;0.90;;;;;;;22.07;59.97;96356.53;5016678;28;20240;-27
2023/11/06 05:20:59;;;;;;;0.77;0.77;;;;;;;22.08;59.68;96363.38;5014734;28;20637;-27
2023/11/06 05:23:26;;;;;;;0.70;0.70;;;;;;;22.10;59.80;96360.00;5012459;28;20206;-30
2023/11/06 05:25:52;;;;;;;0.90;0.90;;;;;;;22.09;59.75;96363.41;5012587;28;20257;-26
2023/11/06 05:28:19;;;;;;;0.83;0.83;;;;;;;22.12;59.88;96365.13;5016817;28;20209;-28
2023/11/06 05:30:46;;;;;;;0.77;0.77;;;;;;;22.11;59.77;96356.56;5016059;28;20194;-26
2023/11/06 05:33:12;;;;;;;0.80;0.80;;;;;;;22.11;59.65;96364.25;5014908;28;20253;-27
2023/11/06 05:35:39;;;;;;;0.80;0.80;;;;;;;22.13;59.80;96370.25;5015252;28;20257;-28
2023/11/06 05:38:06;;;;;;;0.80;0.80;;;;;;;22.14;59.67;96371.13;5012101;28;20634;-27
2023/11/06 05:40:32;;;;;;;0.80;0.80;;;;;;;22.12;59.72;96367.69;5017023;28;20249;-26
2023/11/06 05:42:59;;;;;;;0.90;0.90;;;;;;;22.11;59.86;96373.66;5011533;28;20269;-26
2023/11/06 05:45:25;;;;;;;0.90;0.90;;;;;;;22.10;59.77;96380.47;5012772;28;20246;-28
2023/11/06 05:47:52;;;;;;;0.90;0.90;;;;;;;22.11;59.76;96389.00;5010972;28;20287;-27
2023/11/06 05:50:19;;;;;;;0.80;0.80;;;;;;;22.11;59.52;96386.44;5014174;28;20202;-26
2023/11/06 05:52:46;;;;;;;1.43;0.80;;;;;;;22.09;59.60;96388.13;5012164;28;20249;-26
2023/11/06 05:55:13;;;;;;;1.13;1.00;;;;;;;22.10;59.72;96390.69;5012489;28;20202;-26
2023/11/06 05:57:39;;;;;;;0.80;0.80;;;;;;;22.10;59.59;96393.25;5012277;28;20237;-26
2023/11/06 06:00:11;;;;;;;1.27;1.00;;;;;;;22.10;59.75;96397.50;5010829;28;20677;-28
2023/11/06 06:02:38;;;;;;;0.80;0.80;;;;;;;22.09;59.53;96401.78;5014246;28;20225;-26
2023/11/06 06:05:05;;;;;;;0.83;0.80;;;;;;;22.09;59.25;96406.03;5015561;28;20311;-31
2023/11/06 06:07:31;;;;;;;1.70;1.43;;;;;;;;;;5014783;28;20580;-26
2023/11/06 06:09:58;;;;;;;1.50;1.40;;;;;;;22.06;53.25;96413.69;5012697;28;20230;-26
2023/11/06 06:12:26;;;;;;;1.97;1.77;;;;;;;22.05;52.47;96419.66;5013099;28;20622;-31
2023/11/06 06:14:55;;;;;;;2.73;1.73;;;;;;;22.04;51.50;96421.34;5012254;28;20209;-28
2023/11/06 06:17:22;;;;;;;2.73;1.80;;;;;;;22.00;50.70;96423.84;5013484;28;20619;-26
2023/11/06 06:19:48;;;;;;;2.00;1.70;;;;;;;22.02;49.74;96434.97;5014022;28;20663;-26
2023/11/06 06:22:15;;;;;;;2.70;1.80;;;;;;;22.00;49.42;96440.06;5013423;28;20280;-28
2023/11/06 06:24:42;;;;;;;2.50;1.97;;;;;;;22.00;48.97;96441.75;5016439;28;20280;-27
2023/11/06 06:27:09;;;;;;;2.30;1.60;;;;;;;21.97;48.94;96447.72;5012175;28;20206;-27
2023/11/06 06:29:35;;;;;;;3.07;1.90;;;;;;;21.98;49.09;96446.00;5015997;28;20205;-26
2023/11/06 06:32:03;;;;;;;2.97;1.80;;;;;;;21.97;48.11;96444.28;5013584;28;20626;-26
2023/11/06 06:34:29;;;;;;;4.73;1.60;;;;;;;21.96;48.87;96452.81;5016752;28;20205;-26
2023/11/06 06:36:56;;;;;;;3.27;1.67;;;;;;;21.95;49.84;96462.19;5017112;28;20252;-28
2023/11/06 06:39:22;;;;;;;2.60;1.37;;;;;;;21.95;50.39;96448.50;5018950;28;20634;-28
2023/11/06 06:41:49;;;;;;;1.60;1.50;;;;;;;21.92;51.30;96446.78;5015680;28;20660;-26
2023/11/06 06:44:16;;;;;;;3.03;1.70;;;;;;;21.96;51.79;96455.38;5018685;28;20202;-26
2023/11/06 06:46:42;;;;;;;1.77;1.50;;;;;;;21.95;52.34;96462.19;5014453;28;20276;-30
2023/11/06 06:49:09;;;;;;;1.90;1.47;;;;;;;21.97;52.60;96468.19;5020917;28;20197;-27
2023/11/06 06:51:35;;;;;;;1.90;1.40;;;;;;;21.98;53.17;96476.69;5017627;28;20309;-26
2023/11/06 06:54:02;;;;;;;1.73;1.40;;;;;;;21.98;52.80;96479.25;5021221;28;20229;-26
2023/11/06 06:56:31;;;;;;;1.50;1.40;;;;;;;21.97;51.55;96480.09;5021663;28;20194;-27
2023/11/06 06:58:58;;;;;;;2.77;1.70;;;;;;;21.96;52.14;96489.47;5019440;28;20202;-26
2023/11/06 07:01:24;;;;;;;2.80;1.70;;;;;;;21.97;52.66;96491.19;5008978;28;20268;-26
2023/11/06 07:03:51;;;;;;;2.77;1.40;;;;;;;21.98;52.97;96492.03;5018577;28;20640;-28
2023/11/06 07:06:19;;;;;;;2.30;1.47;;;;;;;21.97;53.22;96498.00;5020689;28;20202;-26
2023/11/06 07:08:47;;;;;;;4.03;1.70;;;;;;;21.98;53.31;96492.03;5017403;28;20206;-26
2023/11/06 07:11:13;;;;;;;3.90;1.60;;;;;;;21.96;50.56;96501.41;5019055;28;20232;-31
2023/11/06 07:13:42;;;;;;;3.63;1.70;;;;;;;21.96;50.67;96501.41;5018672;28;20725;-31
2023/11/06 07:16:11;;;;;;;2.20;1.27;;;;;;;21.96;51.73;96519.31;5013700;28;20260;-26
2023/11/06 07:18:38;;;;;;;3.93;1.50;;;;;;;21.97;52.20;96523.59;5014232;28;20199;-27
2023/11/06 07:21:05;;;;;;;3.57;1.50;;;;;;;21.96;52.20;96535.50;5016887;28;20623;-27
2023/11/06 07:23:31;;;;;;;3.17;1.60;;;;;;;21.96;51.94;96527.00;5015632;28;20225;-28
2023/11/06 07:26:00;;;;;;;2.90;1.80;;;;;;;21.93;49.87;96520.13;5016915;28;20639;-29
2023/11/06 07:28:26;;;;;;;4.80;1.53;;;;;;;21.94;49.60;96528.66;5020363;28;20205;-26
2023/11/06 07:30:53;;;;;;;2.70;1.70;;;;;;;21.94;50.59;96532.09;5023553;28;20252;-26
2023/11/06 07:33:20;;;;;;;2.43;1.50;;;;;;;21.95;51.34;96538.06;5017091;28;20221;-27
2023/11/06 07:35:46;;;;;;;4.13;1.50;;;;;;;21.95;51.68;96535.50;5022890;28;20198;-28
2023/11/06 07:38:13;;;;;;;1.90;1.33;;;;;;;21.95;51.98;96544.03;5017488;28;20198;-32
2023/11/06 07:40:39;;;;;;;2.23;1.40;;;;;;;21.96;52.24;96538.06;5013978;28;20210;-26
2023/11/06 07:43:06;;;;;;;3.27;1.60;;;;;;;21.96;52.64;96543.19;5017795;28;20247;-26
2023/11/06 07:45:33;;;;;;;2.97;1.40;;;;;;;21.96;52.98;96545.75;5019695;28;20210;-30
2023/11/06 07:48:02;;;;;;;1.77;1.30;;;;;;;21.97;53.28;96546.63;5018053;28;20206;-26
2023/11/06 07:50:29;;;;;;;4.50;1.20;;;;;;;21.96;53.67;96543.19;5017502;28;20210;-26
2023/11/06 07:52:56;;;;;;;2.00;1.30;;;;;;;21.97;53.71;96547.47;5014688;28;20214;-26
2023/11/06 07:55:23;;;;;;;1.63;1.40;;;;;;;21.96;54.00;96545.75;5014120;28;20702;-28
2023/11/06 07:57:50;;;;;;;2.40;1.37;;;;;;;21.98;54.12;96548.31;5021679;28;20245;-27
2023/11/06 08:00:17;;;;;;;2.73;1.43;;;;;;;21.97;53.90;96559.41;5014324;28;20194;-26
2023/11/06 08:02:43;;;;;;;3.20;1.60;;;;;;;21.95;54.11;96546.59;5015297;28;20222;-37
2023/11/06 08:05:10;;;;;;;2.80;1.70;;;;;;;21.97;54.08;96549.16;5005011;28;20218;-32
2023/11/06 08:07:38;;;;;;;1.50;1.37;;;;;;;21.96;53.65;96557.69;5011525;28;20546;-27
2023/11/06 08:10:14;;;;;;;2.40;1.40;;;;;;;21.97;52.57;96564.53;5017462;28;20210;-26
2023/11/06 08:12:40;;;;;;;3.20;1.30;;;;;;;21.97;52.59;96574.75;5012296;28;20298;-27
2023/11/06 08:15:08;;;;;;;1.30;1.20;;;;;;;21.96;53.35;96571.31;5010947;28;20210;-26
2023/11/06 08:17:35;;;;;;;2.73;1.30;;;;;;;21.99;53.77;96588.44;5012556;28;20245;-26
2023/11/06 08:20:03;;;;;;;2.80;1.47;;;;;;;21.99;54.05;96580.75;5012097;28;20218;-28
2023/11/06 08:22:31;;;;;;;1.50;1.30;;;;;;;22.00;54.26;96596.13;5009926;28;20284;-26
2023/11/06 08:24:58;;;;;;;1.87;1.50;;;;;;;22.01;54.39;96586.72;5017105;28;20257;-30
2023/11/06 08:27:25;;;;;;;3.57;1.50;;;;;;;22.01;54.46;96600.41;4995576;28;20214;-35
2023/11/06 08:29:52;;;;;;;3.30;1.53;;;;;;;21.93;54.68;96593.47;4998031;28;20214;-32
2023/11/06 08:32:19;;;;;;;1.80;1.30;;;;;;;22.02;54.71;96606.38;5002037;28;20225;-28
2023/11/06 08:34:47;;;;;;;2.50;1.30;;;;;;;22.01;54.82;96607.19;4999008;28;20722;-27
2023/11/06 08:37:14;;;;;;;1.80;1.20;;;;;;;22.01;54.96;96620.88;4999516;28;20210;-29
2023/11/06 08:39:44;;;;;;;2.13;1.50;;;;;;;21.78;54.76;96575.34;4997309;28;20301;-27
2023/11/06 08:42:14;;;;;;;1.77;1.40;;;;;;;22.00;54.95;96619.16;4999125;28;20733;-26
2023/11/06 08:44:41;;;;;;;1.83;1.40;;;;;;;22.00;55.22;96619.16;4999260;28;20543;-28
2023/11/06 08:47:10;;;;;;;1.20;1.10;;;;;;;22.03;55.20;96626.00;4997216;28;20302;-30
2023/11/06 08:49:37;;;;;;;1.50;1.20;;;;;;;22.03;55.38;96631.13;4999524;28;20993;-35
2023/11/06 08:52:04;;;;;;;2.23;1.33;;;;;;;22.03;55.43;96637.09;4997416;28;21620;-32
2023/11/06 08:54:31;;;;;;;2.60;1.53;;;;;;;22.03;55.60;96639.66;4998115;28;20217;-30
2023/11/06 08:56:58;;;;;;;1.10;1.00;;;;;;;22.04;55.46;96638.81;4997523;28;20308;-33
2023/11/06 08:59:24;;;;;;;1.40;1.30;;;;;;;22.02;55.55;96640.47;4997428;28;20210;-28
2023/11/06 09:01:51;;;;;;;2.23;1.43;;;;;;;22.03;55.61;96647.34;4999656;28;20241;-35
2023/11/06 09:04:18;;;;;;;1.57;1.20;;;;;;;22.03;55.45;96638.78;4998678;28;20780;-32
2023/11/06 09:06:48;;;;;;;2.23;1.47;;;;;;;22.02;55.54;96649.88;4998221;28;20296;-27
2023/11/06 09:09:15;;;;;;;1.27;1.17;;;;;;;22.02;55.55;96643.03;4999759;28;20206;-27
2023/11/06 09:11:42;;;;;;;1.73;1.20;;;;;;;22.02;55.81;96648.16;4996425;28;20230;-34
2023/11/06 09:14:09;;;;;;;2.20;1.40;;;;;;;22.03;55.72;96649.03;4997851;28;20289;-33
2023/11/06 09:16:38;;;;;;;1.30;1.20;;;;;;;22.03;56.03;96649.03;4996548;28;20214;-28
2023/11/06 09:19:07;;;;;;;1.10;1.10;;;;;;;22.03;56.08;96656.69;5000756;28;20230;-34
2023/11/06 09:21:34;;;;;;;1.37;1.10;;;;;;;22.04;55.94;96650.72;4998164;28;20222;-31
2023/11/06 09:24:02;;;;;;;1.20;1.10;;;;;;;22.02;56.05;96652.44;4999413;28;20249;-36
2023/11/06 09:26:28;;;;;;;2.13;1.30;;;;;;;22.04;56.09;96651.59;4998567;28;20209;-32
2023/11/06 09:28:55;;;;;;;1.23;1.13;;;;;;;22.04;56.06;96658.41;4999051;28;20198;-39
2023/11/06 09:31:21;;;;;;;1.27;1.10;;;;;;;22.04;56.22;96659.28;4996266;28;20623;-37
2023/11/06 09:33:51;;;;;;;1.20;1.10;;;;;;;22.04;56.29;96666.09;4995545;28;20676;-30
2023/11/06 09:36:17;;;;;;;1.80;1.17;;;;;;;22.05;56.35;96670.38;5000641;28;20214;-40
2023/11/06 09:38:44;;;;;;;1.43;1.20;;;;;;;22.04;56.34;96660.97;4997582;28;20202;-26
2023/11/06 09:41:13;;;;;;;1.30;1.20;;;;;;;22.05;56.37;96670.38;4998695;28;20740;-30
2023/11/06 09:43:41;;;;;;;1.77;1.27;;;;;;;22.03;56.38;96670.38;4999013;28;20226;-31
2023/11/06 09:46:08;;;;;;;1.87;1.20;;;;;;;22.03;56.47;96679.72;4997014;28;20297;-29
2023/11/06 09:48:38;;;;;;;1.53;1.10;;;;;;;22.02;56.25;96667.78;4998947;28;20203;-29
2023/11/06 09:51:10;;;;;;;1.20;1.10;;;;;;;22.02;56.32;96671.19;5000425;28;20309;-32
2023/11/06 09:53:39;;;;;;;1.30;1.20;;;;;;;22.02;56.53;96672.91;4997596;28;20237;-29
2023/11/06 09:56:08;;;;;;;1.30;1.20;;;;;;;22.02;56.48;96673.75;4998109;28;20214;-28
2023/11/06 09:58:36;;;;;;;1.07;1.00;;;;;;;22.03;56.58;96685.72;4998102;28;20599;-37
2023/11/06 10:01:04;;;;;;;1.20;1.10;;;;;;;22.04;56.63;96684.00;4999626;28;20206;-30
2023/11/06 10:03:31;;;;;;;1.17;1.07;;;;;;;22.05;56.63;96688.28;5000227;28;20709;-29
2023/11/06 10:05:58;;;;;;;1.10;1.03;;;;;;;22.04;56.72;96679.75;4997547;28;20354;-29
2023/11/06 10:08:30;;;;;;;1.20;1.10;;;;;;;22.06;56.66;96688.31;4995259;28;20206;-31
2023/11/06 10:11:01;;;;;;;1.20;1.10;;;;;;;21.98;56.69;96650.66;4995989;28;20214;-34
2023/11/06 10:13:30;;;;;;;1.30;0.90;;;;;;;;;;4995418;28;20236;-33
2023/11/06 10:16:16;;;;;;;1.07;1.00;;;;;;;22.09;56.48;96665.34;4996590;28;20268;-32
2023/11/06 10:18:42;;;;;;;1.63;0.93;;;;;;;22.09;56.53;96680.69;5007775;28;20265;-31
2023/11/06 10:21:09;;;;;;;1.17;1.07;;;;;;;22.09;56.71;96680.69;4996263;28;20268;-31
2023/11/06 10:23:37;;;;;;;1.50;1.03;;;;;;;22.08;56.68;96671.28;4997359;28;20336;-31
2023/11/06 10:26:14;;;;;;;1.00;1.00;;;;;;;22.09;56.82;96669.56;4997904;28;20573;-30
2023/11/06 10:28:41;;;;;;;2.07;1.00;;;;;;;22.09;56.71;96677.25;4999751;28;20227;-31
2023/11/06 10:31:08;;;;;;;1.20;1.03;;;;;;;22.08;56.88;96671.28;5001111;28;20264;-28
2023/11/06 10:33:34;;;;;;;1.37;1.10;;;;;;;;;;5006011;28;20202;-29
2023/11/06 10:36:01;;;;;;;1.10;1.10;;;;;;;;;;5012361;28;20207;-27
2023/11/06 10:38:29;;;;;;;1.00;1.00;;;;;;;22.07;56.64;96676.38;5004046;28;20248;-32
2023/11/06 10:41:27;;;;;;;0.80;0.80;;;;;;;22.04;56.92;96677.19;5015041;28;20213;-28
2023/11/06 10:44:01;;;;;;;1.03;0.90;;;;;;;22.06;56.87;96678.09;5011556;28;20222;-27
2023/11/06 10:46:32;;;;;;;1.17;1.10;;;;;;;22.05;56.84;96683.19;5007333;28;20373;-28
2023/11/06 10:49:13;;;;;;;2.17;1.07;;;;;;;22.06;56.96;96672.09;5010588;28;20206;-31
2023/11/06 10:51:40;;;;;;;1.20;1.10;;;;;;;22.06;56.95;96679.78;5005167;28;20296;-26
2023/11/06 10:54:07;;;;;;;2.40;1.13;;;;;;;22.00;57.16;96675.44;4997178;28;20656;-27
2023/11/06 10:56:34;;;;;;;1.07;1.03;;;;;;;22.02;56.95;96668.63;5016783;28;20248;-27
2023/11/06 10:59:01;;;;;;;1.30;1.20;;;;;;;22.06;56.95;96688.31;4998082;28;20653;-27
2023/11/06 11:01:31;;;;;;;1.30;1.20;;;;;;;22.05;57.03;96680.63;5015955;28;20202;-30
2023/11/06 11:03:58;;;;;;;1.37;1.00;;;;;;;22.04;57.25;96673.75;5015636;28;20226;-30
2023/11/06 11:06:25;;;;;;;1.00;1.00;;;;;;;22.06;57.09;96674.66;5001570;28;20268;-28
2023/11/06 11:08:51;;;;;;;1.13;1.07;;;;;;;22.04;57.01;96669.50;5015049;28;20221;-37
2023/11/06 11:11:18;;;;;;;1.10;1.00;;;;;;;22.07;57.13;96673.81;4999594;28;20202;-33
2023/11/06 11:13:46;;;;;;;1.20;1.10;;;;;;;22.07;57.08;96668.69;5004704;28;20200;-33
2023/11/06 11:16:34;;;;;;;1.37;1.00;;;;;;;22.06;57.07;96667.84;5015048;28;20248;-30
2023/11/06 11:19:01;;;;;;;1.33;1.00;;;;;;;22.04;57.21;96661.84;5008894;28;20214;-31
2023/11/06 11:22:06;;;;;;;0.90;0.90;;;;;;;22.04;57.05;96666.97;4994790;28;20669;-27
2023/11/06 11:24:44;;;;;;;1.53;1.00;;;;;;;22.03;57.10;96662.69;5011260;28;20222;-31
2023/11/06 11:27:22;;;;;;;1.20;1.10;;;;;;;22.02;57.04;96666.06;5015472;28;20299;-28
2023/11/06 11:29:54;;;;;;;1.07;1.00;;;;;;;22.04;57.28;96658.41;5013859;28;20292;-28
2023/11/06 11:32:36;;;;;;;1.50;1.20;;;;;;;22.04;57.39;96653.28;5016786;28;20529;-29
2023/11/06 11:35:17;;;;;;;1.47;1.10;;;;;;;22.03;57.30;96665.25;5019181;28;20213;-30
2023/11/06 11:37:53;;;;;;;1.30;1.00;;;;;;;22.04;57.40;96668.66;5012771;28;20259;-28
2023/11/06 11:40:20;;;;;;;0.93;0.93;;;;;;;22.05;57.18;96667.84;5016276;28;20206;-26
2023/11/06 11:42:47;;;;;;;1.10;1.10;;;;;;;22.04;57.31;96669.50;5006715;28;20234;-26